createdAt,value
2023-03-18T00:02:20.036Z,-139.23
2023-03-18T00:04:47.471Z,-139.23
2023-03-18T00:07:15.435Z,-139.23
2023-03-18T00:09:42.989Z,-139.23
2023-03-18T00:12:10.787Z,-139.23
2023-03-18T00:14:39.440Z,-139.23
2023-03-18T00:17:09.463Z,-139.23
2023-03-18T00:19:36.935Z,-139.23
2023-03-18T00:22:05.164Z,-139.23
2023-03-18T00:24:32.556Z,-139.23
2023-03-18T00:26:59.972Z,-139.23
2023-03-18T00:29:27.393Z,-139.23
2023-03-18T00:31:54.763Z,-139.23
2023-03-18T00:34:26.892Z,-139.23
2023-03-18T00:36:56.964Z,-139.23
2023-03-18T00:39:26.384Z,-139.23
2023-03-18T00:41:55.904Z,-139.23
2023-03-18T00:44:25.208Z,-139.23
2023-03-18T00:46:53.186Z,-139.23
2023-03-18T00:49:20.637Z,-139.23
2023-03-18T00:51:49.557Z,-139.23
2023-03-18T00:54:18.080Z,-139.23
2023-03-18T00:56:45.940Z,-139.23
2023-03-18T00:59:13.486Z,-139.23
2023-03-18T01:01:41.907Z,-139.23
2023-03-18T01:04:09.741Z,-139.23
2023-03-18T01:06:38.501Z,-139.23
2023-03-18T01:09:08.881Z,-139.23
2023-03-18T01:11:37.010Z,-139.23
2023-03-18T01:14:04.770Z,-139.23
2023-03-18T01:16:32.287Z,-139.23
2023-03-18T01:18:59.900Z,-139.23
2023-03-18T01:21:29.354Z,-139.23
2023-03-18T01:23:56.787Z,-139.23
2023-03-18T01:26:26.089Z,-139.23
2023-03-18T01:28:55.909Z,-139.23
2023-03-18T01:31:24.152Z,-139.23
2023-03-18T01:33:51.607Z,-139.23
2023-03-18T01:36:19.030Z,-139.23
2023-03-18T01:38:46.563Z,-139.23
2023-03-18T01:41:14.040Z,-139.23
2023-03-18T01:43:45.829Z,-139.23
2023-03-18T01:46:35.100Z,-139.23
2023-03-18T01:49:05.693Z,-139.23
2023-03-18T01:51:33.463Z,-139.23
2023-03-18T01:54:04.352Z,-139.23
2023-03-18T01:56:33.709Z,-139.23
2023-03-18T01:59:06.683Z,-139.23
2023-03-18T02:01:39.716Z,-139.23
2023-03-18T02:04:09.821Z,-139.23
2023-03-18T02:06:38.180Z,-139.23
2023-03-18T02:11:56.895Z,-139.23
2023-03-18T02:14:27.542Z,-139.23
2023-03-18T02:17:00.927Z,-139.23
2023-03-18T02:19:50.700Z,-139.23
2023-03-18T02:22:26.474Z,-139.23
2023-03-18T02:25:05.545Z,-139.23
2023-03-18T02:27:38.417Z,-139.23
2023-03-18T02:30:11.290Z,-139.23
2023-03-18T02:32:40.762Z,-139.23
2023-03-18T02:35:12.124Z,-139.23
2023-03-18T02:37:40.036Z,-139.23
2023-03-18T02:40:15.354Z,-139.23
2023-03-18T02:42:44.465Z,-139.23
2023-03-18T02:45:19.302Z,-139.23
2023-03-18T02:47:49.415Z,-139.23
2023-03-18T02:50:17.531Z,-139.23
2023-03-18T02:52:44.944Z,-139.23
2023-03-18T02:55:15.434Z,-139.23
2023-03-18T02:57:44.316Z,-139.23
2023-03-18T03:00:14.504Z,-139.23
2023-03-18T03:02:42.086Z,-139.23
2023-03-18T03:05:10.813Z,-139.23
2023-03-18T03:07:38.602Z,-139.23
2023-03-18T03:10:07.869Z,-139.23
2023-03-18T03:12:37.702Z,-139.23
2023-03-18T03:15:08.859Z,-139.23
2023-03-18T03:17:36.815Z,-139.23
2023-03-18T03:20:06.214Z,-139.23
2023-03-18T03:22:34.225Z,-139.23
2023-03-18T03:25:02.060Z,-139.23
2023-03-18T03:27:31.036Z,-139.23
2023-03-18T03:29:59.090Z,-139.23
2023-03-18T03:32:28.976Z,-139.23
2023-03-18T03:34:56.337Z,-139.23
2023-03-18T03:37:23.708Z,-139.23
2023-03-18T03:39:51.417Z,-139.23
2023-03-18T03:42:18.811Z,-139.23
2023-03-18T03:44:46.293Z,-139.23
2023-03-18T03:47:13.977Z,-139.23
2023-03-18T03:49:42.733Z,-139.23
2023-03-18T03:52:10.492Z,-139.23
2023-03-18T03:54:38.119Z,-139.23
2023-03-18T03:57:06.103Z,-139.23
2023-03-18T03:59:33.468Z,-139.23
2023-03-18T04:02:00.959Z,-139.23
2023-03-18T04:04:28.730Z,-139.23
2023-03-18T04:06:58.134Z,-139.23
2023-03-18T04:09:25.527Z,-139.23
2023-03-18T04:11:53.007Z,-139.23
2023-03-18T04:14:20.821Z,-139.23
2023-03-18T04:16:49.986Z,-139.23
2023-03-18T04:19:18.899Z,-139.23
2023-03-18T04:21:46.306Z,-139.23
2023-03-18T04:24:15.081Z,-139.23
2023-03-18T04:26:42.619Z,-139.23
2023-03-18T04:29:10.196Z,-139.23
2023-03-18T04:31:37.639Z,-139.23
2023-03-18T04:34:05.085Z,-139.23
2023-03-18T04:36:32.546Z,-139.23
2023-03-18T04:39:00.610Z,-139.23
2023-03-18T04:41:29.326Z,-139.23
2023-03-18T04:43:57.758Z,-139.23
2023-03-18T04:46:29.777Z,-139.23
2023-03-18T04:48:58.351Z,-139.23
2023-03-18T04:51:26.303Z,-139.23
2023-03-18T04:53:54.328Z,-139.23
2023-03-18T04:56:22.046Z,-139.23
2023-03-18T04:58:51.120Z,-139.23
2023-03-18T05:01:18.941Z,-139.23
2023-03-18T05:03:46.594Z,-139.23
2023-03-18T05:06:23.126Z,-139.23
2023-03-18T05:08:51.386Z,-139.23
2023-03-18T05:11:19.091Z,-139.23
2023-03-18T05:13:46.514Z,-139.23
2023-03-18T05:16:15.559Z,-139.23
2023-03-18T05:18:42.944Z,-139.23
2023-03-18T05:21:10.439Z,-139.23
2023-03-18T05:23:38.728Z,-139.23
2023-03-18T05:26:06.716Z,-139.23
2023-03-18T05:28:34.973Z,-139.23
2023-03-18T05:31:03.585Z,-139.23
2023-03-18T05:33:32.895Z,-139.23
2023-03-18T05:36:01.002Z,-139.23
2023-03-18T05:38:28.612Z,-139.23
2023-03-18T05:40:56.274Z,-139.23
2023-03-18T05:43:24.705Z,-139.23
2023-03-18T05:45:52.166Z,-139.23
2023-03-18T05:48:19.530Z,-139.23
2023-03-18T05:50:48.328Z,-139.23
2023-03-18T05:53:16.629Z,-139.23
2023-03-18T05:55:44.583Z,-139.23
2023-03-18T05:58:12.537Z,-139.23
2023-03-18T06:00:40.260Z,-139.23
2023-03-18T06:03:07.652Z,-139.23
2023-03-18T06:05:35.791Z,-139.23
2023-03-18T06:08:04.771Z,-139.23
2023-03-18T06:10:32.392Z,-139.23
2023-03-18T06:13:00.146Z,-139.23
2023-03-18T06:15:27.551Z,-139.23
2023-03-18T06:17:54.952Z,-139.23
2023-03-18T06:20:23.291Z,-139.23
2023-03-18T06:22:51.560Z,-139.23
2023-03-18T06:25:22.353Z,-139.23
2023-03-18T06:27:50.367Z,-139.23
2023-03-18T06:30:19.124Z,-139.23
2023-03-18T06:32:47.044Z,-139.23
2023-03-18T06:35:15.456Z,-139.23
2023-03-18T06:37:43.674Z,-139.23
2023-03-18T06:40:12.513Z,-139.23
2023-03-18T06:42:41.236Z,-139.23
2023-03-18T06:45:10.109Z,-139.23
2023-03-18T06:47:37.535Z,-139.23
2023-03-18T06:50:05.660Z,-139.23
2023-03-18T06:52:33.274Z,-139.23
2023-03-18T06:55:00.914Z,-139.23
2023-03-18T06:57:28.915Z,-139.23
2023-03-18T06:59:59.255Z,-139.23
2023-03-18T07:02:27.344Z,-139.23
2023-03-18T07:04:55.152Z,-139.23
2023-03-18T07:07:23.014Z,-139.23
2023-03-18T07:09:50.740Z,-139.23
2023-03-18T07:12:19.126Z,-139.23
2023-03-18T07:14:46.922Z,-139.23
2023-03-18T07:17:15.657Z,-139.23
2023-03-18T07:19:43.280Z,-139.23
2023-03-18T07:22:11.346Z,-139.23
2023-03-18T07:24:38.787Z,-139.23
2023-03-18T07:27:06.739Z,-139.23
2023-03-18T07:29:34.284Z,-139.23
2023-03-18T07:32:01.808Z,-139.23
2023-03-18T07:34:30.784Z,-139.23
2023-03-18T07:36:58.867Z,-139.23
2023-03-18T07:39:26.442Z,-139.23
2023-03-18T07:41:53.802Z,-139.23
2023-03-18T07:44:21.387Z,-139.23
2023-03-18T07:46:49.154Z,-139.23
2023-03-18T07:49:16.566Z,-139.23
2023-03-18T07:51:45.529Z,-139.23
2023-03-18T07:54:12.918Z,-139.23
2023-03-18T07:56:40.329Z,-139.23
2023-03-18T07:59:07.710Z,-139.23
2023-03-18T08:01:35.055Z,-139.23
2023-03-18T08:04:02.426Z,-139.23
2023-03-18T08:06:30.857Z,-139.23
2023-03-18T08:08:59.891Z,-139.23
2023-03-18T08:11:28.553Z,-139.23
2023-03-18T08:13:55.921Z,-139.23
2023-03-18T08:16:23.605Z,-139.23
2023-03-18T08:18:50.978Z,-139.23
2023-03-18T08:21:19.625Z,-139.23
2023-03-18T08:23:47.478Z,-139.23
2023-03-18T08:26:16.258Z,-139.23
2023-03-18T08:28:43.768Z,-139.23
2023-03-18T08:31:11.202Z,-139.23
2023-03-18T08:33:38.594Z,-139.23
2023-03-18T08:36:06.698Z,-139.23
2023-03-18T08:38:34.180Z,-139.23
2023-03-18T08:41:01.601Z,-139.23
2023-03-18T08:43:30.325Z,-139.23
2023-03-18T08:45:58.508Z,-139.23
2023-03-18T08:48:26.571Z,-139.23
2023-03-18T08:50:54.597Z,-139.23
2023-03-18T08:53:21.956Z,-139.23
2023-03-18T08:55:49.479Z,-139.23
2023-03-18T08:58:18.369Z,-139.23
2023-03-18T09:00:47.240Z,-139.23
2023-03-18T09:03:15.760Z,-139.23
2023-03-18T09:05:43.740Z,-139.23
2023-03-18T09:08:11.099Z,-139.23
2023-03-18T09:10:38.768Z,-139.23
2023-03-18T09:13:06.163Z,-139.23
2023-03-18T09:15:34.129Z,-139.23
2023-03-18T09:18:11.617Z,-139.23
2023-03-18T09:20:40.103Z,-139.23
2023-03-18T09:23:07.797Z,-139.23
2023-03-18T09:25:35.417Z,-139.23
2023-03-18T09:28:03.232Z,-139.23
2023-03-18T09:30:31.789Z,-139.23
2023-03-18T09:33:02.457Z,-139.23
2023-03-18T09:35:31.808Z,-139.23
2023-03-18T09:37:59.686Z,-139.23
2023-03-18T09:40:29.506Z,-139.23
2023-03-18T09:43:15.312Z,-139.23
2023-03-18T09:45:57.015Z,-139.23
2023-03-18T09:48:53.332Z,-139.23
2023-03-18T09:51:31.672Z,-139.23
2023-03-18T09:54:03.312Z,-139.23
2023-03-18T09:56:34.941Z,-139.23
2023-03-18T09:59:05.002Z,-139.23
2023-03-18T10:01:37.157Z,-139.23
2023-03-18T10:04:12.614Z,-139.23
2023-03-18T10:06:43.407Z,-139.23
2023-03-18T10:09:20.230Z,-139.23
2023-03-18T10:11:49.278Z,-139.23
2023-03-18T10:14:31.017Z,-139.23
2023-03-18T10:17:09.279Z,-139.23
2023-03-18T10:19:37.567Z,-139.23
2023-03-18T10:22:20.279Z,-139.23
2023-03-18T10:24:56.892Z,-139.23
2023-03-18T10:27:38.238Z,-139.23
2023-03-18T10:30:24.496Z,-139.23
2023-03-18T10:32:59.962Z,-139.23
2023-03-18T10:35:32.432Z,-139.23
2023-03-18T10:38:05.722Z,-139.23
2023-03-18T10:40:38.248Z,-139.23
2023-03-18T10:43:16.737Z,-139.23
2023-03-18T10:45:45.931Z,-139.23
2023-03-18T10:48:20.175Z,-139.23
2023-03-18T10:50:53.322Z,-139.23
2023-03-18T10:53:28.472Z,-139.23
2023-03-18T10:56:01.410Z,-139.23
2023-03-18T10:58:29.086Z,-139.23
2023-03-18T11:00:56.797Z,-139.23
2023-03-18T11:03:27.851Z,-139.23
2023-03-18T11:05:58.261Z,-139.23
2023-03-18T11:08:34.389Z,-139.23
2023-03-18T11:11:22.900Z,-139.23
2023-03-18T11:13:53.261Z,-139.23
2023-03-18T11:16:29.551Z,-139.23
2023-03-18T11:18:58.130Z,-139.23
2023-03-18T11:21:28.610Z,-139.23
2023-03-18T11:24:20.828Z,-139.23
2023-03-18T11:26:54.321Z,-139.23
2023-03-18T11:29:26.080Z,-139.23
2023-03-18T11:31:58.019Z,-139.23
2023-03-18T11:34:26.583Z,-139.23
2023-03-18T11:36:58.942Z,-139.23
2023-03-18T11:39:29.250Z,-139.23
2023-03-18T11:41:57.171Z,-139.23
2023-03-18T11:44:28.799Z,-139.23
2023-03-18T11:47:02.930Z,-139.23
2023-03-18T11:49:31.457Z,-139.23
2023-03-18T11:52:14.576Z,-139.23
2023-03-18T11:55:05.126Z,-139.23
2023-03-18T11:57:46.814Z,-139.23
2023-03-18T12:00:26.713Z,-139.23
2023-03-18T12:03:10.953Z,-139.23
2023-03-18T12:05:53.455Z,-139.23
2023-03-18T12:08:32.619Z,-139.23
2023-03-18T12:11:13.727Z,-139.23
2023-03-18T12:13:53.718Z,-139.23
2023-03-18T12:16:36.322Z,-139.23
2023-03-18T12:19:19.569Z,-139.23
2023-03-18T12:22:16.873Z,-139.23
2023-03-18T12:24:59.923Z,-139.23
2023-03-18T12:27:34.802Z,-139.23
2023-03-18T12:30:20.328Z,-139.23
2023-03-18T12:32:54.826Z,-139.23
2023-03-18T12:35:43.357Z,-139.23
2023-03-18T12:38:38.855Z,-139.23
2023-03-18T12:41:17.465Z,-139.23
2023-03-18T12:43:55.830Z,-139.23
2023-03-18T12:46:29.509Z,-139.23
2023-03-18T12:49:03.747Z,-139.23
2023-03-18T12:51:41.189Z,-139.23
2023-03-18T12:54:16.041Z,-139.23
2023-03-18T12:56:48.610Z,-139.23
2023-03-18T12:59:23.582Z,-139.23
2023-03-18T13:02:00.564Z,-139.23
2023-03-18T13:04:35.850Z,-139.23
2023-03-18T13:07:16.551Z,-139.23
2023-03-18T13:09:47.717Z,-139.23
2023-03-18T13:12:22.567Z,-139.23
2023-03-18T13:14:58.682Z,-139.23
2023-03-18T13:17:31.282Z,-139.23
2023-03-18T13:20:00.944Z,-139.23
2023-03-18T13:22:54.845Z,-139.23
2023-03-18T13:25:35.401Z,-139.23
2023-03-18T13:28:22.831Z,-139.23
2023-03-18T13:31:05.628Z,-139.23
2023-03-18T13:34:01.070Z,-139.23
2023-03-18T13:36:54.429Z,-139.23
2023-03-18T13:39:42.131Z,-139.23
2023-03-18T13:42:20.381Z,-139.23
2023-03-18T13:44:55.374Z,-139.23
2023-03-18T13:47:29.790Z,-139.23
2023-03-18T13:50:03.818Z,-139.23
2023-03-18T13:52:37.065Z,-139.23
2023-03-18T13:55:08.455Z,-139.23
2023-03-18T13:57:47.854Z,-139.23
2023-03-18T14:00:34.558Z,-139.23
2023-03-18T14:03:07.613Z,-139.23
2023-03-18T14:05:40.147Z,-139.23
2023-03-18T14:08:46.303Z,-139.23
2023-03-18T14:11:51.090Z,-139.23
2023-03-18T14:14:42.274Z,-139.23
2023-03-18T14:17:25.473Z,-139.23
2023-03-18T14:19:57.784Z,-139.23
2023-03-18T14:22:35.598Z,-139.23
2023-03-18T14:25:35.278Z,-139.23
2023-03-18T14:28:18.898Z,-139.23
2023-03-18T14:30:49.303Z,-139.23
2023-03-18T14:33:34.492Z,-139.23
2023-03-18T14:36:10.240Z,-139.23
2023-03-18T14:38:47.174Z,-139.23
2023-03-18T14:41:22.300Z,-139.23
2023-03-18T14:44:08.941Z,-139.23
2023-03-18T14:46:41.287Z,-139.23
2023-03-18T14:49:33.678Z,-139.23
2023-03-18T14:52:05.135Z,-139.23
2023-03-18T14:54:42.326Z,-139.23
2023-03-18T14:57:10.267Z,-139.23
2023-03-18T14:59:37.630Z,-139.23
2023-03-18T15:02:14.345Z,-139.23
2023-03-18T15:04:53.231Z,-139.23
2023-03-18T15:07:22.737Z,-139.23
2023-03-18T15:09:51.138Z,-139.23
2023-03-18T15:12:19.860Z,-139.23
2023-03-18T15:14:51.420Z,-139.23
2023-03-18T15:17:18.790Z,-139.23
2023-03-18T15:19:46.448Z,-139.23
2023-03-18T15:22:21.098Z,-139.23
2023-03-18T15:24:49.831Z,-139.23
2023-03-18T15:27:22.659Z,-139.23
2023-03-18T15:29:52.579Z,-139.23
2023-03-18T15:32:22.114Z,-139.23
2023-03-18T15:34:54.183Z,-139.23
2023-03-18T15:37:34.156Z,-139.23
2023-03-18T15:43:06.615Z,31.50
2023-03-18T15:45:34.465Z,32.22
2023-03-18T15:48:08.874Z,32.84
2023-03-18T15:50:36.977Z,32.05
2023-03-18T15:53:18.463Z,32.97
2023-03-18T15:55:51.906Z,30.27
2023-03-18T15:58:25.468Z,28.05
2023-03-18T16:00:54.177Z,25.60
2023-03-18T16:03:24.630Z,24.77
2023-03-18T16:05:53.190Z,26.03
2023-03-18T16:08:22.625Z,28.06
2023-03-18T16:10:53.140Z,29.20
2023-03-18T16:13:24.986Z,30.26
2023-03-18T16:15:53.140Z,30.11
2023-03-18T16:18:21.010Z,30.03
2023-03-18T16:20:50.038Z,30.48
2023-03-18T16:23:18.697Z,30.30
2023-03-18T16:25:48.504Z,29.96
2023-03-18T16:28:20.593Z,29.38
2023-03-18T16:30:51.975Z,28.93
2023-03-18T16:33:21.557Z,28.68
2023-03-18T16:35:54.523Z,27.66
2023-03-18T16:38:22.027Z,27.10
2023-03-18T16:40:49.978Z,26.88
2023-03-18T16:43:19.752Z,25.98
2023-03-18T16:45:48.987Z,24.76
2023-03-18T16:48:19.313Z,22.26
2023-03-18T16:50:49.877Z,20.87
2023-03-18T16:53:20.607Z,18.93
2023-03-18T16:55:50.581Z,17.80
2023-03-18T16:58:21.227Z,17.03
2023-03-18T17:00:51.264Z,16.42
2023-03-18T17:03:20.272Z,15.79
2023-03-18T17:05:50.438Z,15.15
2023-03-18T17:08:19.030Z,14.77
2023-03-18T17:10:49.297Z,14.44
2023-03-18T17:13:19.882Z,14.12
2023-03-18T17:15:47.411Z,13.88
2023-03-18T17:18:19.022Z,13.68
2023-03-18T17:20:46.930Z,13.54
2023-03-18T17:23:18.943Z,13.33
2023-03-18T17:25:49.725Z,13.11
2023-03-18T17:28:24.566Z,12.99
2023-03-18T17:30:52.354Z,12.91
2023-03-18T17:33:25.069Z,12.74
2023-03-18T17:35:53.322Z,12.73
2023-03-18T17:38:21.797Z,12.69
2023-03-18T17:40:50.080Z,12.79
2023-03-18T17:43:20.060Z,12.77
2023-03-18T17:45:47.618Z,12.72
2023-03-18T17:48:17.837Z,12.74
2023-03-18T17:50:47.449Z,12.85
2023-03-18T17:53:27.414Z,12.91
2023-03-18T17:55:55.658Z,12.86
2023-03-18T17:58:25.925Z,12.98
2023-03-18T18:00:54.109Z,13.02
2023-03-18T18:03:24.299Z,13.01
2023-03-18T18:05:53.942Z,13.08
2023-03-18T18:08:22.821Z,13.04
2023-03-18T18:10:50.389Z,13.07
2023-03-18T18:13:22.079Z,13.13
2023-03-18T18:15:51.420Z,13.13
2023-03-18T18:18:26.035Z,13.47
2023-03-18T18:20:56.888Z,14.16
2023-03-18T18:23:29.545Z,14.39
2023-03-18T18:25:59.863Z,14.04
2023-03-18T18:28:32.674Z,13.77
2023-03-18T18:31:01.732Z,13.58
2023-03-18T18:33:29.933Z,13.40
2023-03-18T18:35:58.796Z,13.27
2023-03-18T18:38:27.149Z,13.09
2023-03-18T18:40:56.147Z,13.14
2023-03-18T18:43:24.594Z,13.10
2023-03-18T18:45:53.435Z,13.09
2023-03-18T18:48:25.203Z,13.07
2023-03-18T18:50:52.587Z,12.96
2023-03-18T18:53:24.970Z,12.87
2023-03-18T18:55:53.765Z,12.86
2023-03-18T18:58:23.192Z,12.86
2023-03-18T19:00:51.819Z,12.83
2023-03-18T19:03:22.086Z,12.84
2023-03-18T19:05:52.380Z,12.79
2023-03-18T19:08:26.668Z,12.71
2023-03-18T19:10:56.255Z,12.67
2023-03-18T19:13:24.477Z,12.59
2023-03-18T19:15:53.462Z,12.60
2023-03-18T19:18:23.986Z,12.63
2023-03-18T19:20:51.907Z,12.61
2023-03-18T19:23:23.459Z,12.52
2023-03-18T19:25:53.290Z,12.61
2023-03-18T19:28:31.338Z,12.52
2023-03-18T19:30:58.782Z,12.31
2023-03-18T19:33:26.710Z,12.17
2023-03-18T19:35:54.168Z,12.15
2023-03-18T19:38:22.421Z,12.21
2023-03-18T19:40:53.107Z,12.07
2023-03-18T19:43:21.667Z,12.04
2023-03-18T19:45:51.849Z,12.05
2023-03-18T19:48:23.477Z,12.11
2023-03-18T19:50:51.788Z,11.98
2023-03-18T19:53:20.253Z,-139.23
2023-03-18T19:55:48.423Z,-139.23
2023-03-18T19:58:24.287Z,-139.23
2023-03-18T20:00:52.489Z,-139.23
2023-03-18T20:03:21.524Z,-139.23
2023-03-18T20:05:49.473Z,-139.23
2023-03-18T20:08:16.838Z,-139.23
2023-03-18T20:10:45.505Z,-139.23
2023-03-18T20:13:17.187Z,-139.23
2023-03-18T20:15:48.028Z,-139.23
2023-03-18T20:18:17.634Z,-139.23
2023-03-18T20:20:47.935Z,-139.23
2023-03-18T20:23:20.915Z,-139.23
2023-03-18T20:25:51.174Z,-139.23
2023-03-18T20:28:23.549Z,-139.23
2023-03-18T20:30:56.233Z,-139.23
2023-03-18T20:33:24.147Z,-139.23
2023-03-18T20:35:53.896Z,-139.23
2023-03-18T20:38:26.488Z,-139.23
2023-03-18T20:40:53.897Z,-139.23
2023-03-18T20:43:23.475Z,-139.23
2023-03-18T20:45:53.718Z,17.96
2023-03-18T20:48:22.256Z,-139.23
2023-03-18T20:50:50.821Z,-139.23
2023-03-18T20:53:21.703Z,-139.23
2023-03-18T20:55:49.475Z,-139.23
2023-03-18T20:58:18.684Z,-139.23
2023-03-18T21:00:47.018Z,-139.23
2023-03-18T21:03:27.038Z,-139.23
2023-03-18T21:05:56.130Z,-139.23
2023-03-18T21:08:24.619Z,-139.23
2023-03-18T21:10:52.451Z,-139.23
2023-03-18T21:13:27.313Z,11.98
2023-03-18T21:15:54.824Z,-139.23
2023-03-18T21:18:22.385Z,11.98
2023-03-18T21:20:53.234Z,-139.23
2023-03-18T21:23:23.417Z,-139.23
2023-03-18T21:25:51.495Z,-139.23
2023-03-18T21:28:21.225Z,-139.23
2023-03-18T21:30:52.379Z,11.98
2023-03-18T21:33:22.814Z,11.98
2023-03-18T21:35:56.618Z,11.98
2023-03-18T21:38:24.731Z,11.98
2023-03-18T21:40:52.590Z,11.98
2023-03-18T21:43:30.206Z,9.27
2023-03-18T21:45:57.625Z,9.33
2023-03-18T21:48:24.995Z,9.31
2023-03-18T21:50:54.008Z,9.21
2023-03-18T21:53:23.832Z,9.11
2023-03-18T21:55:52.516Z,9.05
2023-03-18T21:58:21.540Z,9.05
2023-03-18T22:00:52.101Z,9.05
2023-03-18T22:03:21.474Z,8.97
2023-03-18T22:05:51.649Z,8.80
2023-03-18T22:08:21.326Z,8.71
2023-03-18T22:10:50.979Z,8.65
2023-03-18T22:13:20.095Z,8.60
2023-03-18T22:15:48.382Z,8.66
2023-03-18T22:18:16.578Z,8.55
2023-03-18T22:20:45.317Z,8.42
2023-03-18T22:23:17.863Z,8.47
2023-03-18T22:25:48.459Z,8.61
2023-03-18T22:28:16.138Z,8.55
2023-03-18T22:30:44.832Z,8.54
2023-03-18T22:33:21.922Z,8.50
2023-03-18T22:35:49.457Z,8.53
2023-03-18T22:38:19.235Z,8.74
2023-03-18T22:40:51.529Z,8.83
2023-03-18T22:43:29.864Z,8.88
2023-03-18T22:45:57.765Z,8.78
2023-03-18T22:48:25.576Z,8.73
2023-03-18T22:50:53.896Z,8.70
2023-03-18T22:53:24.192Z,8.69
2023-03-18T22:55:55.383Z,8.58
2023-03-18T22:58:25.078Z,8.67
2023-03-18T23:00:53.192Z,8.67
2023-03-18T23:03:23.257Z,8.61
2023-03-18T23:05:53.102Z,8.50
2023-03-18T23:08:21.546Z,8.34
2023-03-18T23:10:50.470Z,8.17
2023-03-18T23:13:25.948Z,8.04
2023-03-18T23:15:53.475Z,8.11
2023-03-18T23:18:21.164Z,8.11
2023-03-18T23:20:53.103Z,8.11
2023-03-18T23:23:21.831Z,8.11
2023-03-18T23:25:51.741Z,8.11
2023-03-18T23:28:20.657Z,8.11
2023-03-18T23:30:49.856Z,7.71
2023-03-18T23:33:17.668Z,7.71
2023-03-18T23:35:45.542Z,7.70
2023-03-18T23:38:13.092Z,7.70
2023-03-18T23:40:41.857Z,7.51
2023-03-18T23:43:09.406Z,7.51
2023-03-18T23:45:39.122Z,7.51
2023-03-18T23:48:07.555Z,7.51
2023-03-18T23:50:36.010Z,7.51
2023-03-18T23:53:03.446Z,7.11
2023-03-18T23:55:45.437Z,7.11
2023-03-18T23:58:12.969Z,7.11
